الصفحة الرئيسية
METAR-TAF:

METAR-TAF

مطار :

Yap, مايكرونيزيا

دائرة عرض: 09-29N, خط طول: 138-05E, ارتفاع: 28 متر

مراقبة الطقس الحالي

تاريخ ووقت الإصدار 41 دقيقة قبل الساعة 20:51UTC
ريح 3 عقدةمن اتجاهات متغيرة
درجة الحرارة 27°درجة مئوية
الرطوبة 89%
ضغط 1013 hPa
الرؤية: 19.3 كم
غيوم قليلة على ارتفاع 1600 قدم
غيوم مفككة على ارتفاع 13000 قدم
غيوم مفككة على ارتفاع 30000 قدم

METAR: PTYA 252051Z VRB03KT 12SM FEW016 BKN130 BKN300 27/25 A2991 RMK SLP130 8/171 T02650250 53010

زمن: 07:32 (21:32 UTC)

توقعات

تاريخ ووقت الإصدار 4ساعات و 7 دقيقة قبل الساعة 17:25UTC
التوقعات صالحة من25 الساعة 18 UTC إلى 26 الساعة 18 UTC
ريح 10 عقدة من الشرق
الرؤية: 10 كم
غيوم قليلة على ارتفاع 1800 قدم

TAF: PTYA 251725Z 2518/2618 09010KT P6SM FEW018

أرصاد الطقس والتوقعات من أكثر من 4000 مطار (تقارير الطقس للمطار METAR والتنبؤ بالطقس بالمطارTAF).

المحطات المتاحة هي النقط الصفراء والحمراء على الخريطة.

حرك المؤشر فوق النقطة لمعرفة اسم المحطة.

ثم انقر لمعرفة أرصاد وتوقعات الطقس.

لتغيير الخارطة: اضغط على الأزرار الخضراء مع رمز الصليب الأسود للتكبير. على الزر الأخضر مع شرطة للتصغير، أو على الأسهم الخضراء للخرائط المجاورة.


METAR-TAF: